Terminal Aerodrome Forecast
Issued by NWS Miami, FL

Home | Current Version | Previous Version | Text Only | Print | Product List | Glossary On
Versions: 1 2 3 4 5 6 7 8 9 10 11 12 13 14 15 16 17 18 19 20 21 22 23 24 25 26 27
000
FTUS42 KMFL 201255 AAA
TAFFLL
TAF AMD
KFLL 201255Z 2013/2118 34008KT P6SM VCSH BKN060
      TEMPO 2013/2014 -SHRA BKN025
     FM201400 06015KT P6SM VCSH SCT035 BKN060
     FM210000 07012KT P6SM VCSH BKN035 BKN050
     FM210600 09012KT P6SM -SHRA SCT025 BKN035
     FM211400 12010KT P6SM VCSH SCT025 BKN045=

USA.gov is the U.S. government's official web portal to all federal, state and local government web resources and services.